createdAt,value
2017-11-25T00:02:16.744Z,24.57
2017-11-25T00:04:44.845Z,28.20
2017-11-25T00:07:12.921Z,27.33
2017-11-25T00:09:41.000Z,27.00
2017-11-25T00:12:09.102Z,26.63
2017-11-25T00:14:37.184Z,25.60
2017-11-25T00:17:05.302Z,78.57
2017-11-25T00:19:34.156Z,30.83
2017-11-25T00:22:02.285Z,27.67
2017-11-25T00:24:31.180Z,28.40
2017-11-25T00:26:59.269Z,30.13
2017-11-25T00:29:27.495Z,27.03
2017-11-25T00:31:55.572Z,25.73
2017-11-25T00:34:24.097Z,27.03
2017-11-25T00:36:52.177Z,27.20
2017-11-25T00:39:21.053Z,27.70
2017-11-25T00:41:49.130Z,27.87
2017-11-25T00:44:17.308Z,28.30
2017-11-25T00:46:45.380Z,29.20
2017-11-25T00:49:13.480Z,26.70
2017-11-25T00:51:41.552Z,28.43
2017-11-25T00:54:10.592Z,28.17
2017-11-25T00:56:39.453Z,29.30
2017-11-25T00:59:08.397Z,28.70
2017-11-25T01:01:36.494Z,29.00
2017-11-25T01:04:04.942Z,27.80
2017-11-25T01:06:33.023Z,30.10
2017-11-25T01:09:01.130Z,28.10
2017-11-25T01:11:29.233Z,28.50
2017-11-25T01:13:57.305Z,29.17
2017-11-25T01:16:25.422Z,22.60
2017-11-25T01:18:53.488Z,13.50
2017-11-25T01:21:21.579Z,11.23
2017-11-25T01:23:49.696Z,9.40
2017-11-25T01:26:17.789Z,9.40
2017-11-25T01:28:46.534Z,9.30
2017-11-25T01:31:15.093Z,8.67
2017-11-25T01:33:43.162Z,7.70
2017-11-25T01:36:11.321Z,6.70
2017-11-25T01:38:39.396Z,5.70
2017-11-25T01:41:07.497Z,6.30
2017-11-25T01:43:35.724Z,5.43
2017-11-25T01:46:03.955Z,5.20
2017-11-25T01:48:33.044Z,5.63
2017-11-25T01:51:01.694Z,4.80
2017-11-25T01:53:29.828Z,4.57
2017-11-25T01:55:58.002Z,4.50
2017-11-25T01:58:26.098Z,4.67
2017-11-25T02:00:54.207Z,4.40
2017-11-25T02:03:22.313Z,3.87
2017-11-25T02:05:51.201Z,3.80
2017-11-25T02:08:19.272Z,4.40
2017-11-25T02:10:47.637Z,4.60
2017-11-25T02:13:15.729Z,6.00
2017-11-25T02:15:43.812Z,5.20
2017-11-25T02:18:12.004Z,4.80
2017-11-25T02:20:40.221Z,5.80
2017-11-25T02:23:08.345Z,4.80
2017-11-25T02:25:36.424Z,4.40
2017-11-25T02:28:04.513Z,5.03
2017-11-25T02:30:32.585Z,4.93
2017-11-25T02:33:00.682Z,4.97
2017-11-25T02:35:28.836Z,5.50
2017-11-25T02:37:56.906Z,5.37
2017-11-25T02:40:24.995Z,5.80
2017-11-25T02:42:53.087Z,5.77
2017-11-25T02:45:21.557Z,5.40
2017-11-25T02:47:49.796Z,5.87
2017-11-25T02:50:17.882Z,5.57
2017-11-25T02:52:45.959Z,5.90
2017-11-25T02:55:14.073Z,5.47
2017-11-25T02:57:42.180Z,6.47
2017-11-25T03:00:10.672Z,6.10
2017-11-25T03:02:38.831Z,5.40
2017-11-25T03:05:06.920Z,6.00
2017-11-25T03:07:35.001Z,5.97
2017-11-25T03:10:03.347Z,5.60
2017-11-25T03:12:32.208Z,6.37
2017-11-25T03:15:00.306Z,6.93
2017-11-25T03:17:28.387Z,6.70
2017-11-25T03:19:56.476Z,6.07
2017-11-25T03:22:24.597Z,6.53
2017-11-25T03:24:52.688Z,7.77
2017-11-25T03:27:21.550Z,7.67
2017-11-25T03:29:49.652Z,7.63
2017-11-25T03:32:18.493Z,7.40
2017-11-25T03:34:46.569Z,8.40
2017-11-25T03:37:14.698Z,9.13
2017-11-25T03:39:42.775Z,7.87
2017-11-25T03:42:10.862Z,9.07
2017-11-25T03:44:38.949Z,7.30
2017-11-25T03:47:07.589Z,8.77
2017-11-25T03:49:36.453Z,7.60
2017-11-25T03:52:04.896Z,7.03
2017-11-25T03:54:33.042Z,7.07
2017-11-25T03:57:01.137Z,6.57
2017-11-25T03:59:29.218Z,7.10
2017-11-25T04:01:57.329Z,7.60
2017-11-25T04:04:25.396Z,6.47
2017-11-25T04:06:53.539Z,7.40
2017-11-25T04:09:21.616Z,8.20
2017-11-25T04:11:49.684Z,8.33
2017-11-25T04:14:17.768Z,8.00
2017-11-25T04:16:45.840Z,7.77
2017-11-25T04:19:13.928Z,7.73
2017-11-25T04:21:42.001Z,7.57
2017-11-25T04:24:10.070Z,7.30
2017-11-25T04:26:38.176Z,7.20
2017-11-25T04:29:07.062Z,6.40
2017-11-25T04:31:35.922Z,7.00
2017-11-25T04:34:04.704Z,7.03
2017-11-25T04:36:33.741Z,6.20
2017-11-25T04:39:02.585Z,6.50
2017-11-25T04:41:30.656Z,6.30
2017-11-25T04:43:59.781Z,7.30
2017-11-25T04:46:27.892Z,7.57
2017-11-25T04:48:56.156Z,8.00
2017-11-25T04:51:24.276Z,8.87
2017-11-25T04:53:52.369Z,8.70
2017-11-25T04:56:20.546Z,8.93
2017-11-25T04:58:48.633Z,7.70
2017-11-25T05:01:16.768Z,8.00
2017-11-25T05:03:44.849Z,7.90
2017-11-25T05:06:14.021Z,8.70
2017-11-25T05:08:42.141Z,8.23
2017-11-25T05:11:10.485Z,8.80
2017-11-25T05:13:39.487Z,7.80
2017-11-25T05:16:07.572Z,9.37
2017-11-25T05:18:35.660Z,8.97
2017-11-25T05:21:04.498Z,8.87
2017-11-25T05:23:32.605Z,9.40
2017-11-25T05:26:00.683Z,9.90
2017-11-25T05:28:29.181Z,8.83
2017-11-25T05:30:58.008Z,8.77
2017-11-25T05:33:26.095Z,9.43
2017-11-25T05:35:54.229Z,9.20
2017-11-25T05:38:22.319Z,8.13
2017-11-25T05:40:50.416Z,9.93
2017-11-25T05:43:18.529Z,9.13
2017-11-25T05:45:46.707Z,8.80
2017-11-25T05:48:14.790Z,8.13
2017-11-25T05:50:42.965Z,9.40
2017-11-25T05:53:11.087Z,9.73
2017-11-25T05:55:39.386Z,10.13
2017-11-25T05:58:07.594Z,10.67
2017-11-25T06:00:35.688Z,10.07
2017-11-25T06:03:03.841Z,9.37
2017-11-25T06:05:31.913Z,10.07
2017-11-25T06:08:00.023Z,10.27
2017-11-25T06:10:28.096Z,9.67
2017-11-25T06:12:56.184Z,10.53
2017-11-25T06:15:25.286Z,11.77
2017-11-25T06:17:53.598Z,12.33
2017-11-25T06:20:21.717Z,11.40
2017-11-25T06:22:49.793Z,10.43
2017-11-25T06:25:17.901Z,11.30
2017-11-25T06:27:46.750Z,10.90
2017-11-25T06:30:14.931Z,10.40
2017-11-25T06:32:43.118Z,11.60
2017-11-25T06:35:11.268Z,10.60
2017-11-25T06:37:39.354Z,12.30
2017-11-25T06:40:07.453Z,11.50
2017-11-25T06:42:36.311Z,11.33
2017-11-25T06:45:04.449Z,12.87
2017-11-25T06:47:32.828Z,11.93
2017-11-25T06:50:00.913Z,12.40
2017-11-25T06:52:29.037Z,11.43
2017-11-25T06:54:57.181Z,13.10
2017-11-25T06:57:25.344Z,11.73
2017-11-25T06:59:53.420Z,13.30
2017-11-25T07:02:21.517Z,17.57
2017-11-25T07:04:49.624Z,11.33
2017-11-25T07:07:17.736Z,14.03
2017-11-25T07:09:46.004Z,12.27
2017-11-25T07:12:14.400Z,12.00
2017-11-25T07:14:42.497Z,13.50
2017-11-25T07:17:11.400Z,16.87
2017-11-25T07:19:40.290Z,13.07
2017-11-25T07:22:08.409Z,13.83
2017-11-25T07:24:36.500Z,16.20
2017-11-25T07:27:04.592Z,12.37
2017-11-25T07:29:32.685Z,13.70
2017-11-25T07:32:01.529Z,14.60
2017-11-25T07:34:32.085Z,12.73
2017-11-25T07:37:00.945Z,13.23
2017-11-25T07:39:29.020Z,14.67
2017-11-25T07:41:58.129Z,13.00
2017-11-25T07:44:26.920Z,14.07
2017-11-25T07:46:55.007Z,14.50
2017-11-25T07:49:23.882Z,13.57
2017-11-25T07:51:51.957Z,14.90
2017-11-25T07:54:20.144Z,14.30
2017-11-25T07:56:48.292Z,16.10
2017-11-25T07:59:16.373Z,14.50
2017-11-25T08:01:44.468Z,15.30
2017-11-25T08:04:13.333Z,15.27
2017-11-25T08:06:41.409Z,18.00
2017-11-25T08:09:09.500Z,17.17
2017-11-25T08:11:38.383Z,17.70
2017-11-25T08:14:06.484Z,16.23
2017-11-25T08:16:34.592Z,17.37
2017-11-25T08:19:02.680Z,14.40
2017-11-25T08:21:30.764Z,15.63
2017-11-25T08:23:58.874Z,15.00
2017-11-25T08:26:26.962Z,15.80
2017-11-25T08:28:55.062Z,16.50
2017-11-25T08:31:23.144Z,15.97
2017-11-25T08:33:51.289Z,14.40
2017-11-25T08:36:19.400Z,15.17
2017-11-25T08:38:47.665Z,14.20
2017-11-25T08:41:15.801Z,10.63
2017-11-25T08:43:43.901Z,11.47
2017-11-25T08:46:12.933Z,12.10
2017-11-25T08:48:41.054Z,10.63
2017-11-25T08:51:09.170Z,10.43
2017-11-25T08:53:37.250Z,10.40
2017-11-25T08:56:06.118Z,10.40
2017-11-25T08:58:34.339Z,10.80
2017-11-25T09:01:02.462Z,10.23
2017-11-25T09:03:30.564Z,10.80
2017-11-25T09:05:59.504Z,11.23
2017-11-25T09:08:27.578Z,11.00
2017-11-25T09:10:55.688Z,9.77
2017-11-25T09:13:23.760Z,8.57
2017-11-25T09:15:51.877Z,10.17
2017-11-25T09:18:19.983Z,8.23
2017-11-25T09:20:48.054Z,9.30
2017-11-25T09:23:16.148Z,9.57
2017-11-25T09:25:44.282Z,8.70
2017-11-25T09:28:12.387Z,8.73
2017-11-25T09:30:40.478Z,8.87
2017-11-25T09:33:08.631Z,9.20
2017-11-25T09:35:36.728Z,10.10
2017-11-25T09:38:05.600Z,8.67
2017-11-25T09:40:33.911Z,8.33
2017-11-25T09:43:01.993Z,9.57
2017-11-25T09:45:30.101Z,8.77
2017-11-25T09:47:58.226Z,8.60
2017-11-25T09:50:26.357Z,9.30
2017-11-25T09:52:54.424Z,8.70
2017-11-25T09:55:22.526Z,7.90
2017-11-25T09:57:50.633Z,10.23
2017-11-25T10:00:18.742Z,7.50
2017-11-25T10:02:46.809Z,8.03
2017-11-25T10:05:14.910Z,6.83
2017-11-25T10:07:43.004Z,7.20
2017-11-25T10:10:11.353Z,8.70
2017-11-25T10:12:39.425Z,7.63
2017-11-25T10:15:07.541Z,6.60
2017-11-25T10:17:35.641Z,7.00
2017-11-25T10:20:03.732Z,7.40
2017-11-25T10:22:31.813Z,10.83
2017-11-25T10:24:59.918Z,7.83
2017-11-25T10:27:28.004Z,7.07
2017-11-25T10:29:56.083Z,7.97
2017-11-25T10:32:24.210Z,8.40
2017-11-25T10:34:53.064Z,7.60
2017-11-25T10:37:21.141Z,7.60
2017-11-25T10:39:49.286Z,7.87
2017-11-25T10:42:17.393Z,9.23
2017-11-25T10:44:45.483Z,8.23
2017-11-25T10:47:13.623Z,8.40
2017-11-25T10:49:41.700Z,10.93
2017-11-25T10:52:09.799Z,9.17
2017-11-25T10:54:38.911Z,9.07
2017-11-25T10:57:07.773Z,9.70
2017-11-25T10:59:35.841Z,8.53
2017-11-25T11:02:03.932Z,9.47
2017-11-25T11:04:32.052Z,8.93
2017-11-25T11:07:00.201Z,12.67
2017-11-25T11:09:28.320Z,48.40
2017-11-25T11:11:56.433Z,14.40
2017-11-25T11:14:25.266Z,12.50
2017-11-25T11:16:53.409Z,11.23
2017-11-25T11:19:22.257Z,10.50
2017-11-25T11:21:50.359Z,9.17
2017-11-25T11:24:19.213Z,15.10
2017-11-25T11:26:47.320Z,17.77
2017-11-25T11:29:15.528Z,12.00
2017-11-25T11:31:43.654Z,16.00
2017-11-25T11:34:11.725Z,15.17
2017-11-25T11:36:39.851Z,10.13
2017-11-25T11:39:07.937Z,11.83
2017-11-25T11:41:36.021Z,11.63
2017-11-25T11:44:04.153Z,9.30
2017-11-25T11:46:32.228Z,8.20
2017-11-25T11:49:00.316Z,8.90
2017-11-25T11:51:28.426Z,9.43
2017-11-25T11:53:56.531Z,7.70
2017-11-25T11:56:24.616Z,9.30
2017-11-25T11:58:52.728Z,7.77
2017-11-25T12:01:20.800Z,7.47
2017-11-25T12:03:48.902Z,7.50
2017-11-25T12:06:17.003Z,7.60
2017-11-25T12:08:45.077Z,8.07
2017-11-25T12:11:13.174Z,8.10
2017-11-25T12:13:41.334Z,7.10
2017-11-25T12:16:09.444Z,7.13
2017-11-25T12:18:37.522Z,6.10
2017-11-25T12:21:05.621Z,5.73
2017-11-25T12:23:34.505Z,6.10
2017-11-25T12:26:03.345Z,5.57
2017-11-25T12:28:31.460Z,5.10
2017-11-25T12:30:59.530Z,4.53
2017-11-25T12:33:27.598Z,4.70
2017-11-25T12:35:55.713Z,5.20
2017-11-25T12:38:23.828Z,5.70
2017-11-25T12:40:51.889Z,5.07
2017-11-25T12:43:19.994Z,4.80
2017-11-25T12:45:49.835Z,4.90
2017-11-25T12:48:17.914Z,6.77
2017-11-25T12:50:46.061Z,5.30
2017-11-25T12:53:14.993Z,5.63
2017-11-25T12:55:43.100Z,6.03
2017-11-25T12:58:11.180Z,6.87
2017-11-25T13:00:39.281Z,6.70
2017-11-25T13:03:08.158Z,7.73
2017-11-25T13:05:37.053Z,6.93
2017-11-25T13:08:05.185Z,7.50
2017-11-25T13:10:33.269Z,6.43
2017-11-25T13:13:01.377Z,9.30
2017-11-25T13:15:29.476Z,7.43
2017-11-25T13:17:57.561Z,7.70
2017-11-25T13:20:25.668Z,6.80
2017-11-25T13:22:53.744Z,7.17
2017-11-25T13:25:21.865Z,9.10
2017-11-25T13:27:49.961Z,8.07
2017-11-25T13:30:18.098Z,9.03
2017-11-25T13:32:46.211Z,10.80
2017-11-25T13:35:14.299Z,24.60
2017-11-25T13:37:42.376Z,42.77
2017-11-25T13:40:10.487Z,13.73
2017-11-25T13:42:38.581Z,10.43
2017-11-25T13:45:06.696Z,10.23
2017-11-25T13:47:34.789Z,27.63
2017-11-25T13:50:02.893Z,10.70
2017-11-25T13:52:30.988Z,13.50
2017-11-25T13:54:59.121Z,8.70
2017-11-25T13:57:27.223Z,12.10
2017-11-25T13:59:56.069Z,11.30
2017-11-25T14:02:24.961Z,15.30
2017-11-25T14:04:53.058Z,15.23
2017-11-25T14:07:21.181Z,9.40
2017-11-25T14:09:49.290Z,9.30
2017-11-25T14:12:17.378Z,9.37
2017-11-25T14:14:45.600Z,14.00
2017-11-25T14:17:13.700Z,7.70
2017-11-25T14:19:41.800Z,9.67
2017-11-25T14:22:09.881Z,35.23
2017-11-25T14:24:37.962Z,21.23
2017-11-25T14:27:06.060Z,11.00
2017-11-25T14:29:34.185Z,23.93
2017-11-25T14:32:02.301Z,14.33
2017-11-25T14:34:30.465Z,10.63
2017-11-25T14:36:58.551Z,10.40
2017-11-25T14:39:26.665Z,10.83
2017-11-25T14:41:54.891Z,11.50
2017-11-25T14:44:22.975Z,11.60
2017-11-25T14:46:51.088Z,11.40
2017-11-25T14:49:19.169Z,11.17
2017-11-25T14:51:47.287Z,10.43
2017-11-25T14:54:15.377Z,11.50
2017-11-25T14:56:44.315Z,12.07
2017-11-25T14:59:13.418Z,12.40
2017-11-25T15:01:41.502Z,14.20
2017-11-25T15:04:09.597Z,11.90
2017-11-25T15:06:37.676Z,14.90
2017-11-25T15:09:05.778Z,15.87
2017-11-25T15:11:33.869Z,11.73
2017-11-25T15:14:01.992Z,11.87
2017-11-25T15:16:30.074Z,11.90
2017-11-25T15:18:58.159Z,13.30
2017-11-25T15:21:26.320Z,11.80
2017-11-25T15:23:54.416Z,12.07
2017-11-25T15:26:22.536Z,12.70
2017-11-25T15:28:50.634Z,13.53
2017-11-25T15:31:19.768Z,14.43
2017-11-25T15:33:47.869Z,13.80
2017-11-25T15:36:20.421Z,12.57
2017-11-25T15:38:48.493Z,14.80
2017-11-25T15:41:16.576Z,14.63
2017-11-25T15:43:44.681Z,13.77
2017-11-25T15:46:13.060Z,13.93
2017-11-25T15:48:41.190Z,13.47
2017-11-25T15:51:09.290Z,13.70
2017-11-25T15:53:37.394Z,13.73
2017-11-25T15:56:06.321Z,14.10
2017-11-25T15:58:34.404Z,14.23
2017-11-25T16:01:02.510Z,13.00
2017-11-25T16:03:30.585Z,13.77
2017-11-25T16:05:58.986Z,13.80
2017-11-25T16:08:27.069Z,14.77
2017-11-25T16:10:55.210Z,13.43
2017-11-25T16:13:23.293Z,12.47
2017-11-25T16:15:51.384Z,11.87
2017-11-25T16:18:19.469Z,8.33
2017-11-25T16:20:47.645Z,8.23
2017-11-25T16:23:15.728Z,7.20
2017-11-25T16:25:43.832Z,6.37
2017-11-25T16:28:11.927Z,4.20
2017-11-25T16:30:40.017Z,4.40
2017-11-25T16:33:08.989Z,4.57
2017-11-25T16:35:37.068Z,4.90
2017-11-25T16:38:05.328Z,4.07
2017-11-25T16:40:33.396Z,5.00
2017-11-25T16:43:01.475Z,6.40
2017-11-25T16:45:29.610Z,4.27
2017-11-25T16:48:14.589Z,4.30
2017-11-25T16:50:42.700Z,7.53
2017-11-25T16:53:10.862Z,4.97
2017-11-25T16:55:38.958Z,4.80
2017-11-25T16:58:07.891Z,4.20
2017-11-25T17:00:35.986Z,4.80
2017-11-25T17:03:04.089Z,3.70
2017-11-25T17:05:32.956Z,3.13
2017-11-25T17:08:01.086Z,4.90
2017-11-25T17:10:29.157Z,2.50
2017-11-25T17:12:57.358Z,3.63
2017-11-25T17:15:27.069Z,2.00
2017-11-25T17:17:55.243Z,1.80
2017-11-25T17:20:23.328Z,2.43
2017-11-25T17:22:51.409Z,2.03
2017-11-25T17:25:19.642Z,2.33
2017-11-25T17:27:47.738Z,2.00
2017-11-25T17:30:16.222Z,2.43
2017-11-25T17:32:44.501Z,2.33
2017-11-25T17:35:12.671Z,2.13
2017-11-25T17:37:40.816Z,3.10
2017-11-25T17:40:08.888Z,2.70
2017-11-25T17:42:37.299Z,2.50
2017-11-25T17:45:05.487Z,2.57
2017-11-25T17:47:33.649Z,2.40
2017-11-25T17:50:01.935Z,3.63
2017-11-25T17:52:30.008Z,2.93
2017-11-25T17:54:59.056Z,2.40
2017-11-25T17:57:27.134Z,2.53
2017-11-25T17:59:55.333Z,2.10
2017-11-25T18:02:23.433Z,2.50
2017-11-25T18:04:51.755Z,2.57
2017-11-25T18:07:19.829Z,2.63
2017-11-25T18:09:47.900Z,2.50
2017-11-25T18:12:16.158Z,2.90
2017-11-25T18:14:44.245Z,2.90
2017-11-25T18:17:12.352Z,3.73
2017-11-25T18:19:40.448Z,3.00
2017-11-25T18:22:08.582Z,2.83
2017-11-25T18:24:36.773Z,3.40
2017-11-25T18:27:04.902Z,3.00
2017-11-25T18:29:33.008Z,4.33
2017-11-25T18:32:01.107Z,3.33
2017-11-25T18:34:29.202Z,3.57
2017-11-25T18:36:58.052Z,4.50
2017-11-25T18:39:26.650Z,3.57
2017-11-25T18:41:54.745Z,4.17
2017-11-25T18:44:23.611Z,2.90
2017-11-25T18:46:51.697Z,4.47
2017-11-25T18:49:20.554Z,3.83
2017-11-25T18:51:48.701Z,3.00
2017-11-25T18:54:16.861Z,3.70
2017-11-25T18:56:44.964Z,3.40
2017-11-25T18:59:13.127Z,3.67
2017-11-25T19:01:41.217Z,3.30
2017-11-25T19:04:09.310Z,3.40
2017-11-25T19:06:37.396Z,3.63
2017-11-25T19:09:05.473Z,3.27
2017-11-25T19:11:34.332Z,3.93
2017-11-25T19:14:02.403Z,3.80
2017-11-25T19:16:30.496Z,8.33
2017-11-25T19:18:58.592Z,7.33
2017-11-25T19:21:27.612Z,4.97
2017-11-25T19:23:55.738Z,15.40
2017-11-25T19:26:23.830Z,7.40
2017-11-25T19:28:52.702Z,17.10
2017-11-25T19:31:21.547Z,7.10
2017-11-25T19:33:49.637Z,6.93
2017-11-25T19:36:17.720Z,5.63
2017-11-25T19:38:45.834Z,5.03
2017-11-25T19:41:13.929Z,6.70
2017-11-25T19:43:42.069Z,5.97
2017-11-25T19:46:10.919Z,12.37
2017-11-25T19:48:39.065Z,5.60
2017-11-25T19:51:07.224Z,4.40
2017-11-25T19:53:35.416Z,4.73
2017-11-25T19:56:03.486Z,5.50
2017-11-25T19:58:31.658Z,4.53
2017-11-25T20:00:59.814Z,5.30
2017-11-25T20:03:27.973Z,6.77
2017-11-25T20:05:56.801Z,6.00
2017-11-25T20:08:24.909Z,6.30
2017-11-25T20:10:52.986Z,6.80
2017-11-25T20:13:21.112Z,6.10
2017-11-25T20:15:49.186Z,6.03
2017-11-25T20:18:17.313Z,6.20
2017-11-25T20:20:45.418Z,6.03
2017-11-25T20:23:13.518Z,5.90
2017-11-25T20:25:41.621Z,6.37
2017-11-25T20:28:09.714Z,6.37
2017-11-25T20:30:38.576Z,6.23
2017-11-25T20:33:06.664Z,6.70
2017-11-25T20:35:35.541Z,7.90
2017-11-25T20:38:03.681Z,11.83
2017-11-25T20:40:31.769Z,10.30
2017-11-25T20:42:59.881Z,7.73
2017-11-25T20:45:28.741Z,10.10
2017-11-25T20:48:00.394Z,6.90
2017-11-25T20:50:28.472Z,6.90
2017-11-25T20:52:56.549Z,7.07
2017-11-25T20:55:24.649Z,7.57
2017-11-25T20:57:53.493Z,8.13
2017-11-25T21:00:21.589Z,7.13
2017-11-25T21:02:49.741Z,7.20
2017-11-25T21:05:17.844Z,6.13
2017-11-25T21:07:46.701Z,6.43
2017-11-25T21:10:14.820Z,7.43
2017-11-25T21:12:43.669Z,6.20
2017-11-25T21:15:11.768Z,5.83
2017-11-25T21:17:40.642Z,6.00
2017-11-25T21:20:08.753Z,5.10
2017-11-25T21:22:36.940Z,5.57
2017-11-25T21:25:05.131Z,5.60
2017-11-25T21:27:33.201Z,6.67
2017-11-25T21:30:01.269Z,6.13
2017-11-25T21:32:29.570Z,6.27
2017-11-25T21:34:57.654Z,6.80
2017-11-25T21:37:25.749Z,7.70
2017-11-25T21:39:53.889Z,7.30
2017-11-25T21:42:22.002Z,7.50
2017-11-25T21:44:51.076Z,7.60
2017-11-25T21:47:19.165Z,6.60
2017-11-25T21:49:47.404Z,6.60
2017-11-25T21:52:15.487Z,6.60
2017-11-25T21:54:43.658Z,7.00
2017-11-25T21:57:11.736Z,7.60
2017-11-25T21:59:39.822Z,7.70
2017-11-25T22:02:07.966Z,8.47
2017-11-25T22:04:36.092Z,8.33
2017-11-25T22:07:04.285Z,8.87
2017-11-25T22:09:32.385Z,9.33
2017-11-25T22:12:01.234Z,9.53
2017-11-25T22:14:29.344Z,9.40
2017-11-25T22:16:57.576Z,10.63
2017-11-25T22:19:26.541Z,10.20
2017-11-25T22:21:54.654Z,10.13
2017-11-25T22:24:22.772Z,10.33
2017-11-25T22:26:50.936Z,11.07
2017-11-25T22:29:19.020Z,10.20
2017-11-25T22:31:47.104Z,10.03
2017-11-25T22:34:15.204Z,10.50
2017-11-25T22:36:43.290Z,10.23
2017-11-25T22:39:11.372Z,9.70
2017-11-25T22:41:40.266Z,10.00
2017-11-25T22:44:08.386Z,10.20
2017-11-25T22:46:36.464Z,10.77
2017-11-25T22:49:04.554Z,10.57
2017-11-25T22:51:32.655Z,12.50
2017-11-25T22:54:00.889Z,11.17
2017-11-25T22:56:29.862Z,12.53
2017-11-25T22:58:58.176Z,10.63
2017-11-25T23:01:27.070Z,10.20
2017-11-25T23:03:55.146Z,11.10
2017-11-25T23:06:23.234Z,12.00
2017-11-25T23:08:51.346Z,11.93
2017-11-25T23:11:19.449Z,11.53
2017-11-25T23:13:47.556Z,11.33
2017-11-25T23:16:16.586Z,11.43
2017-11-25T23:18:44.681Z,11.03
2017-11-25T23:21:12.781Z,12.30
2017-11-25T23:23:40.926Z,12.20
2017-11-25T23:26:09.773Z,11.30
2017-11-25T23:28:37.853Z,12.77
2017-11-25T23:31:06.073Z,11.77
2017-11-25T23:33:34.934Z,12.63
2017-11-25T23:36:03.084Z,13.63
2017-11-25T23:38:31.201Z,12.10
2017-11-25T23:41:00.221Z,10.83
2017-11-25T23:43:28.296Z,12.00
2017-11-25T23:45:56.393Z,11.90
2017-11-25T23:48:24.547Z,10.87
2017-11-25T23:50:52.625Z,11.70
2017-11-25T23:53:21.855Z,12.10
2017-11-25T23:55:49.933Z,11.20
2017-11-25T23:58:18.044Z,10.50
